createdAt,value
2019-06-20T00:00:57.732Z,3.32
2019-06-20T00:06:01.404Z,3.45
2019-06-20T00:11:03.984Z,3.25
2019-06-20T00:16:06.457Z,3.30
2019-06-20T00:21:08.923Z,3.03
2019-06-20T00:26:11.457Z,2.88
2019-06-20T00:31:14.007Z,3.28
2019-06-20T00:36:16.632Z,3.00
2019-06-20T00:41:19.090Z,3.22
2019-06-20T00:46:21.604Z,3.56
2019-06-20T00:51:24.121Z,4.11
2019-06-20T00:56:26.625Z,3.84
2019-06-20T01:01:29.251Z,4.24
2019-06-20T01:06:31.745Z,4.52
2019-06-20T01:11:34.186Z,4.35
2019-06-20T01:16:37.004Z,4.36
2019-06-20T01:21:39.424Z,4.88
2019-06-20T01:26:41.965Z,5.18
2019-06-20T01:31:44.338Z,5.30
2019-06-20T01:36:46.847Z,5.01
2019-06-20T01:41:49.245Z,5.05
2019-06-20T01:46:51.759Z,5.14
2019-06-20T01:51:54.503Z,4.88
2019-06-20T01:56:56.983Z,5.12
2019-06-20T02:01:59.372Z,4.93
2019-06-20T02:07:01.812Z,4.54
2019-06-20T02:12:04.346Z,4.40
2019-06-20T02:17:07.130Z,4.54
2019-06-20T02:22:09.522Z,4.94
2019-06-20T02:27:12.036Z,4.33
2019-06-20T02:32:14.445Z,4.15
2019-06-20T02:37:17.787Z,4.80
2019-06-20T02:42:20.145Z,4.02
2019-06-20T02:47:22.864Z,4.63
2019-06-20T02:52:25.298Z,4.46
2019-06-20T02:57:30.714Z,3.60
2019-06-20T03:02:33.355Z,3.29
2019-06-20T03:07:35.844Z,3.42
2019-06-20T03:12:38.619Z,3.36
2019-06-20T03:17:41.164Z,3.60
2019-06-20T03:22:44.013Z,3.13
2019-06-20T03:27:46.667Z,2.85
2019-06-20T03:32:49.299Z,2.62
2019-06-20T03:37:52.043Z,2.45
2019-06-20T03:42:54.764Z,2.42
2019-06-20T03:47:57.382Z,2.55
2019-06-20T03:52:59.846Z,2.18
2019-06-20T03:58:02.579Z,2.09
2019-06-20T04:03:05.561Z,2.19
2019-06-20T04:08:08.604Z,1.94
2019-06-20T04:13:11.220Z,2.17
2019-06-20T04:18:13.773Z,2.03
2019-06-20T04:23:16.206Z,2.25
2019-06-20T04:28:18.864Z,2.17
2019-06-20T04:33:21.718Z,2.05
2019-06-20T04:38:24.254Z,2.33
2019-06-20T04:43:26.708Z,2.59
2019-06-20T04:48:29.148Z,2.61
2019-06-20T04:53:31.598Z,2.28
2019-06-20T04:58:34.590Z,2.43
2019-06-20T05:03:37.293Z,2.79
2019-06-20T05:08:40.108Z,3.05
2019-06-20T05:13:42.543Z,2.97
2019-06-20T05:18:45.138Z,2.70
2019-06-20T05:23:47.641Z,2.80
2019-06-20T05:28:50.355Z,2.80
2019-06-20T05:33:53.322Z,3.66
2019-06-20T05:38:56.017Z,3.80
2019-06-20T05:45:16.330Z,3.62
2019-06-20T05:50:22.030Z,3.46
2019-06-20T05:55:24.490Z,4.12
2019-06-20T06:00:28.070Z,3.47
2019-06-20T06:05:30.504Z,4.04
2019-06-20T06:10:33.073Z,5.18
2019-06-20T06:15:35.492Z,5.26
2019-06-20T06:20:38.320Z,4.63
2019-06-20T06:25:40.830Z,4.68
2019-06-20T06:30:44.037Z,5.04
2019-06-20T06:35:47.323Z,4.53
2019-06-20T06:40:50.174Z,3.82
2019-06-20T06:45:53.578Z,3.65
2019-06-20T06:50:56.208Z,3.94
2019-06-20T06:55:58.649Z,4.23
2019-06-20T07:01:02.431Z,4.32
2019-06-20T07:06:04.851Z,4.42
2019-06-20T07:11:08.521Z,5.01
2019-06-20T07:16:11.836Z,5.06
2019-06-20T07:21:14.813Z,4.83
2019-06-20T07:26:17.298Z,5.20
2019-06-20T07:31:19.921Z,5.11
2019-06-20T07:36:22.741Z,5.08
2019-06-20T07:41:25.798Z,5.46
2019-06-20T07:46:30.136Z,5.06
2019-06-20T07:51:31.260Z,5.03
2019-06-20T07:56:34.668Z,4.80
2019-06-20T08:01:39.168Z,4.64
2019-06-20T08:06:42.014Z,5.64
2019-06-20T08:11:45.257Z,6.13
2019-06-20T08:16:48.133Z,5.83
2019-06-20T08:21:51.654Z,5.31
2019-06-20T08:26:54.188Z,5.27
2019-06-20T08:31:57.972Z,5.69
2019-06-20T08:37:00.418Z,6.67
2019-06-20T08:42:02.142Z,6.24
2019-06-20T08:47:05.954Z,6.03
2019-06-20T08:52:09.126Z,5.86
2019-06-20T08:57:11.621Z,6.12
2019-06-20T09:02:14.658Z,6.32
2019-06-20T09:07:17.210Z,6.12
2019-06-20T09:12:19.886Z,6.39
2019-06-20T09:17:22.947Z,7.37
2019-06-20T09:22:27.220Z,7.47
2019-06-20T09:27:29.744Z,7.23
2019-06-20T09:32:32.442Z,7.01
2019-06-20T09:37:35.102Z,6.53
2019-06-20T09:42:38.572Z,6.01
2019-06-20T09:47:41.503Z,5.81
2019-06-20T09:52:44.120Z,5.74
2019-06-20T09:57:47.337Z,6.11
2019-06-20T10:02:50.355Z,6.11
2019-06-20T10:07:52.293Z,6.24
2019-06-20T10:12:53.892Z,6.05
2019-06-20T10:17:56.373Z,6.39
2019-06-20T10:22:58.934Z,6.20
2019-06-20T10:28:01.437Z,6.10
2019-06-20T10:33:04.381Z,5.81
2019-06-20T10:38:06.884Z,6.05
2019-06-20T10:43:09.839Z,5.66
2019-06-20T10:48:12.739Z,6.03
2019-06-20T10:53:15.518Z,5.91
2019-06-20T10:58:18.044Z,6.21
2019-06-20T11:03:20.797Z,5.95
2019-06-20T11:08:23.328Z,5.35
2019-06-20T11:13:25.860Z,6.58
2019-06-20T11:18:28.357Z,6.40
2019-06-20T11:23:30.868Z,5.73
2019-06-20T11:28:33.403Z,5.79
2019-06-20T11:33:37.112Z,6.08
2019-06-20T11:38:39.608Z,6.56
2019-06-20T11:43:40.710Z,5.68
2019-06-20T11:48:43.222Z,6.51
2019-06-20T11:53:45.894Z,5.74
2019-06-20T11:58:48.796Z,5.99
2019-06-20T12:03:51.518Z,5.61
2019-06-20T12:08:54.061Z,5.75
2019-06-20T12:13:56.756Z,5.26
2019-06-20T12:18:59.665Z,5.03
2019-06-20T12:24:02.269Z,5.10
2019-06-20T12:29:04.740Z,5.01
2019-06-20T12:34:08.093Z,5.14
2019-06-20T12:39:10.609Z,4.49
2019-06-20T12:44:13.202Z,4.09
2019-06-20T12:49:15.733Z,4.45
2019-06-20T12:54:18.293Z,4.75
2019-06-20T12:59:21.106Z,5.22
2019-06-20T13:04:23.917Z,5.83
2019-06-20T13:09:27.301Z,6.27
2019-06-20T13:14:31.533Z,6.77
2019-06-20T13:19:34.153Z,6.58
2019-06-20T13:24:37.963Z,6.28
2019-06-20T13:29:40.636Z,6.62
2019-06-20T13:34:42.854Z,6.58
2019-06-20T13:39:45.625Z,6.88
2019-06-20T13:44:46.081Z,6.70
2019-06-20T13:49:50.107Z,7.25
2019-06-20T13:54:51.176Z,7.42
2019-06-20T13:59:54.571Z,7.70
2019-06-20T14:04:56.179Z,7.69
2019-06-20T14:09:58.890Z,7.43
2019-06-20T14:15:01.843Z,7.63
2019-06-20T14:20:08.129Z,7.73
2019-06-20T14:25:07.878Z,6.39
2019-06-20T14:30:10.739Z,6.10
2019-06-20T14:35:13.742Z,5.63
2019-06-20T14:40:16.753Z,5.56
2019-06-20T14:45:19.868Z,5.11
2019-06-20T14:50:22.836Z,4.67
2019-06-20T14:55:26.503Z,4.33
2019-06-20T15:00:29.163Z,4.16
2019-06-20T15:05:34.798Z,4.06
2019-06-20T15:10:34.622Z,4.02
2019-06-20T15:15:37.585Z,3.48
2019-06-20T15:20:40.264Z,3.26
2019-06-20T15:25:43.724Z,3.16
2019-06-20T15:30:47.685Z,2.97
2019-06-20T15:35:50.670Z,3.31
2019-06-20T15:40:51.649Z,3.98
2019-06-20T15:45:54.182Z,3.96
2019-06-20T15:50:56.669Z,3.90
2019-06-20T15:55:59.607Z,3.66
2019-06-20T16:01:02.528Z,3.73
2019-06-20T16:06:05.195Z,4.20
2019-06-20T16:11:07.839Z,4.20
2019-06-20T16:16:10.423Z,3.74
2019-06-20T16:21:13.084Z,4.52
2019-06-20T16:26:15.886Z,4.00
2019-06-20T16:31:26.860Z,3.77
2019-06-20T16:36:20.674Z,3.80
2019-06-20T16:41:23.190Z,3.97
2019-06-20T16:46:26.096Z,4.23
2019-06-20T16:51:28.805Z,4.20
2019-06-20T16:56:32.576Z,3.73
2019-06-20T17:01:35.083Z,4.14
2019-06-20T17:06:38.264Z,3.57
2019-06-20T17:11:41.478Z,3.65
2019-06-20T17:16:44.663Z,3.65
2019-06-20T17:21:47.177Z,3.54
2019-06-20T17:26:50.453Z,3.41
2019-06-20T17:31:53.210Z,3.86
2019-06-20T17:36:56.508Z,4.02
2019-06-20T17:41:59.938Z,3.69
2019-06-20T17:47:02.829Z,4.47
2019-06-20T17:52:05.728Z,4.07
2019-06-20T17:57:08.626Z,3.47
2019-06-20T18:02:11.639Z,3.40
2019-06-20T18:07:15.056Z,3.35
2019-06-20T18:12:18.776Z,3.11
2019-06-20T18:17:22.045Z,3.39
2019-06-20T18:22:24.920Z,2.98
2019-06-20T18:27:27.613Z,3.02
2019-06-20T18:32:30.949Z,2.90
2019-06-20T18:37:33.925Z,2.87
2019-06-20T18:42:36.829Z,3.27
2019-06-20T18:47:39.444Z,2.99
2019-06-20T18:52:51.519Z,3.12
2019-06-20T18:57:44.339Z,3.28
2019-06-20T19:02:47.274Z,3.19
2019-06-20T19:07:50.114Z,3.10
2019-06-20T19:12:52.824Z,3.52
2019-06-20T19:17:55.516Z,3.12
2019-06-20T19:22:58.005Z,2.98
2019-06-20T19:28:00.879Z,3.50
2019-06-20T19:33:03.418Z,3.19
2019-06-20T19:38:06.158Z,3.17
2019-06-20T19:43:08.615Z,3.24
2019-06-20T19:48:11.257Z,3.10
2019-06-20T19:53:16.256Z,3.25
2019-06-20T19:58:19.430Z,3.29
2019-06-20T20:03:21.904Z,3.11
2019-06-20T20:08:24.504Z,2.93
2019-06-20T20:13:27.287Z,3.14
2019-06-20T20:18:30.291Z,3.15
2019-06-20T20:23:33.294Z,2.82
2019-06-20T20:28:36.091Z,2.90
2019-06-20T20:33:38.905Z,2.74
2019-06-20T20:38:41.569Z,2.92
2019-06-20T20:43:44.281Z,2.74
2019-06-20T20:48:46.894Z,2.75
2019-06-20T20:53:49.629Z,2.99
2019-06-20T20:58:52.651Z,2.80
2019-06-20T21:03:55.256Z,3.02
2019-06-20T21:08:57.891Z,2.99
2019-06-20T21:14:00.361Z,2.80
2019-06-20T21:19:03.101Z,2.65
2019-06-20T21:24:05.564Z,3.27
2019-06-20T21:29:08.523Z,3.02
2019-06-20T21:34:10.981Z,2.75
2019-06-20T21:39:13.866Z,3.03
2019-06-20T21:44:16.621Z,2.80
2019-06-20T21:49:19.886Z,3.16
2019-06-20T21:54:22.675Z,3.16
2019-06-20T21:59:25.284Z,2.83
2019-06-20T22:04:27.950Z,2.91
2019-06-20T22:09:30.898Z,2.97
2019-06-20T22:14:35.325Z,2.94
2019-06-20T22:19:39.877Z,2.98
2019-06-20T22:24:42.533Z,3.07
2019-06-20T22:29:46.188Z,3.04
2019-06-20T22:34:49.110Z,2.49
2019-06-20T22:39:51.946Z,2.99
2019-06-20T22:44:54.575Z,2.78
2019-06-20T22:49:57.436Z,2.64
2019-06-20T22:55:00.292Z,2.81
2019-06-20T23:00:03.312Z,2.80
2019-06-20T23:05:06.454Z,2.08
2019-06-20T23:10:11.084Z,1.66
2019-06-20T23:15:11.512Z,1.78
2019-06-20T23:20:14.251Z,1.69
2019-06-20T23:25:16.899Z,1.50
2019-06-20T23:30:19.496Z,1.47
2019-06-20T23:35:22.174Z,1.36
2019-06-20T23:40:25.517Z,1.47
2019-06-20T23:45:28.020Z,1.42
2019-06-20T23:50:30.839Z,1.45
2019-06-20T23:55:33.513Z,1.47
